Time;durP1;ratioP1;P1;durP2;ratioP2;P2;SDS_P1;SDS_P2;PMS_P1;PMS_P2;Temp;Humidity;BMP_temperature;BMP_pressure;BME280_temperature;BME280_humidity;BME280_pressure;Samples;Min_cycle;Max_cycle;Signal;HPM_P1;HPM_P2
2023/05/29 00:00:22;;;;;;;;;;;;;;;;;;5072966;28;19963;-74
2023/05/29 00:02:47;;;;;;;;;;;;;;;;;;5073135;28;19912;-74
2023/05/29 00:05:12;;;;;;;;;;;;;;;;;;5072944;28;19935;-75
2023/05/29 00:07:38;;;;;;;;;;;;;;;;;;5055026;28;19908;-73
2023/05/29 00:10:03;;;;;;;;;;;;;;;;;;5073146;28;19955;-73
2023/05/29 00:12:29;;;;;;;;;;;;;;;;;;5054968;28;20355;-74
2023/05/29 00:14:54;;;;;;;;;;;;;;;;;;5038491;28;19978;-74
2023/05/29 00:17:20;;;;;;;;;;;;;;;;;;5054843;28;19916;-73
2023/05/29 00:19:45;;;;;;;;;;;;;;;;;;5072765;28;19928;-72
2023/05/29 00:22:10;;;;;;;;;;;;;;;;;;5072361;28;19912;-73
2023/05/29 00:24:36;;;;;;;;;;;;;;;;;;5072775;28;19919;-76
2023/05/29 00:27:01;;;;;;;;;;;;;;;;;;5072526;28;20278;-75
2023/05/29 00:29:27;;;;;;;;;;;;;;;;;;5072347;28;19978;-74
2023/05/29 00:31:53;;;;;;;;;;;;;;;;;;5072725;28;19912;-75
2023/05/29 00:34:19;;;;;;;;;;;;;;;;;;5072510;28;19919;-75
2023/05/29 00:36:44;;;;;;;;;;;;;;;;;;5071131;28;19909;-76
2023/05/29 00:39:10;;;;;;;;;;;;;;;;;;5072778;28;19916;-75
2023/05/29 00:41:35;;;;;;;;;;;;;;;;;;5058417;28;19912;-76
2023/05/29 00:44:01;;;;;;;;;;;;;;;;;;5076333;28;19913;-75
2023/05/29 00:46:26;;;;;;;;;;;;;;;;;;5076163;28;19912;-76
2023/05/29 00:48:52;;;;;;;;;;;;;;;;;;5058320;28;19916;-75
2023/05/29 00:51:18;;;;;;;;;;;;;;;;;;5074817;28;20371;-75
2023/05/29 00:53:43;;;;;;;;;;;;;;;;;;5075997;28;20016;-75
2023/05/29 00:56:08;;;;;;;;;;;;;;;;;;5075805;28;19922;-75
2023/05/29 00:58:34;;;;;;;;;;;;;;;;;;5058155;28;19916;-75
2023/05/29 01:00:59;;;;;;;;;;;;;;;;;;5075845;28;19924;-75
2023/05/29 01:03:24;;;;;;;;;;;;;;;;;;5058141;28;19959;-75
2023/05/29 01:05:51;;;;;;;;;;;;;;;;;;5075812;28;19935;-75
2023/05/29 01:08:17;;;;;;;;;;;;;;;;;;5057715;28;19923;-75
2023/05/29 01:10:45;;;;;;;;;;;;;;;;;;5057638;28;19913;-75
2023/05/29 01:13:10;;;;;;;;;;;;;;;;;;5057967;28;19912;-75
2023/05/29 01:15:35;;;;;;;;;;;;;;;;;;5075664;28;19912;-74
2023/05/29 01:18:01;;;;;;;;;;;;;;;;;;5057776;28;19920;-74
2023/05/29 01:20:26;;;;;;;;;;;;;;;;;;5075628;28;19923;-74
2023/05/29 01:22:52;;;;;;;;;;;;;;;;;;5075634;28;19912;-74
2023/05/29 01:25:17;;;;;;;;;;;;;;;;;;5057384;28;20294;-75
2023/05/29 01:27:42;;;;;;;;;;;;;;;;;;5057562;28;19913;-75
2023/05/29 01:30:08;;;;;;;;;;;;;;;;;;5075891;28;19920;-75
2023/05/29 01:32:33;;;;;;;;;;;;;;;;;;5075419;28;20382;-74
2023/05/29 01:34:58;;;;;;;;;;;;;;;;;;5075591;28;19916;-74
2023/05/29 01:37:25;;;;;;;;;;;;;;;;;;5057565;28;20391;-75
2023/05/29 01:39:50;;;;;;;;;;;;;;;;;;5075081;28;19950;-75
2023/05/29 01:42:16;;;;;;;;;;;;;;;;;;5057457;28;20298;-74
2023/05/29 01:44:42;;;;;;;;;;;;;;;;;;5057127;28;19920;-74
2023/05/29 01:47:07;;;;;;;;;;;;;;;;;;5075179;28;20279;-74
2023/05/29 01:49:33;;;;;;;;;;;;;;;;;;5075163;28;19912;-75
2023/05/29 01:51:59;;;;;;;;;;;;;;;;;;5073922;28;19916;-76
2023/05/29 01:54:25;;;;;;;;;;;;;;;;;;5075007;28;19923;-76
2023/05/29 01:56:50;;;;;;;;;;;;;;;;;;5040617;28;19912;-77
2023/05/29 01:59:15;;;;;;;;;;;;;;;;;;5056857;28;20276;-77
2023/05/29 02:01:41;;;;;;;;;;;;;;;;;;5057111;28;19919;-75
2023/05/29 02:04:06;;;;;;;;;;;;;;;;;;5074942;28;19913;-76
2023/05/29 02:06:33;;;;;;;;;;;;;;;;;;5026562;28;19912;-75
2023/05/29 02:08:58;;;;;;;;;;;;;;;;;;5036752;28;20431;-76
2023/05/29 02:11:25;;;;;;;;;;;;;;;;;;5036698;28;19960;-75
2023/05/29 02:13:51;;;;;;;;;;;;;;;;;;5056944;28;19958;-76
2023/05/29 02:16:16;;;;;;;;;;;;;;;;;;5040217;28;20275;-75
2023/05/29 02:18:43;;;;;;;;;;;;;;;;;;5056650;28;20360;-74
2023/05/29 02:21:08;;;;;;;;;;;;;;;;;;5056945;28;20252;-75
2023/05/29 02:23:34;;;;;;;;;;;;;;;;;;5074474;28;19912;-75
2023/05/29 02:25:59;;;;;;;;;;;;;;;;;;5056591;28;19916;-76
2023/05/29 02:28:25;;;;;;;;;;;;;;;;;;5074641;28;19916;-76
2023/05/29 02:30:51;;;;;;;;;;;;;;;;;;5074658;28;19919;-76
2023/05/29 02:33:16;;;;;;;;;;;;;;;;;;5074313;28;19916;-76
2023/05/29 02:35:41;;;;;;;;;;;;;;;;;;5074482;28;19919;-75
2023/05/29 02:38:06;;;;;;;;;;;;;;;;;;5074695;28;19951;-75
2023/05/29 02:40:32;;;;;;;;;;;;;;;;;;5074256;28;20855;-75
2023/05/29 02:42:57;;;;;;;;;;;;;;;;;;5074260;28;19912;-74
2023/05/29 02:45:22;;;;;;;;;;;;;;;;;;5074374;28;19963;-74
2023/05/29 02:47:48;;;;;;;;;;;;;;;;;;5074363;28;19966;-74
2023/05/29 02:50:14;;;;;;;;;;;;;;;;;;5074289;28;20010;-75
2023/05/29 02:52:40;;;;;;;;;;;;;;;;;;5074305;28;19908;-75
2023/05/29 02:55:06;;;;;;;;;;;;;;;;;;5074052;28;20436;-75
2023/05/29 02:57:32;;;;;;;;;;;;;;;;;;5056223;28;19966;-75
2023/05/29 02:59:57;;;;;;;;;;;;;;;;;;5060056;28;20539;-76
2023/05/29 03:02:23;;;;;;;;;;;;;;;;;;5067868;28;19924;-74
2023/05/29 03:04:50;;;;;;;;;;;;;;;;;;5067154;28;19952;-75
2023/05/29 03:07:16;;;;;;;;;;;;;;;;;;5068761;28;19922;-74
2023/05/29 03:09:41;;;;;;;;;;;;;;;;;;5068145;28;19912;-74
2023/05/29 03:12:07;;;;;;;;;;;;;;;;;;5049257;28;19919;-75
2023/05/29 03:14:35;;;;;;;;;;;;;;;;;;5067778;28;20015;-75
2023/05/29 03:17:04;;;;;;;;;;;;;;;;;;5049935;28;19916;-75
2023/05/29 03:19:29;;;;;;;;;;;;;;;;;;5043446;28;20379;-74
2023/05/29 03:21:54;;;;;;;;;;;;;;;;;;5023462;28;19920;-76
2023/05/29 03:24:20;;;;;;;;;;;;;;;;;;5049402;28;19916;-75
2023/05/29 03:26:45;;;;;;;;;;;;;;;;;;5034741;28;19916;-75
2023/05/29 03:29:11;;;;;;;;;;;;;;;;;;5051582;28;19965;-75
2023/05/29 03:31:36;;;;;;;;;;;;;;;;;;5069296;28;19919;-75
2023/05/29 03:34:01;;;;;;;;;;;;;;;;;;5051163;28;20283;-74
2023/05/29 03:36:38;;;;;;;;;;;;;;;;;;5069412;28;20299;-74
2023/05/29 03:39:03;;;;;;;;;;;;;;;;;;5051256;28;19923;-74
2023/05/29 03:41:29;;;;;;;;;;;;;;;;;;5046828;28;19924;-74
2023/05/29 03:43:54;;;;;;;;;;;;;;;;;;5070365;28;19981;-76
2023/05/29 03:46:21;;;;;;;;;;;;;;;;;;5050705;28;19912;-76
2023/05/29 03:48:47;;;;;;;;;;;;;;;;;;5050577;28;19919;-74
2023/05/29 03:51:12;;;;;;;;;;;;;;;;;;5050999;28;20026;-79
2023/05/29 03:53:38;;;;;;;;;;;;;;;;;;5050716;28;19912;-75
2023/05/29 03:56:03;;;;;;;;;;;;;;;;;;5069231;28;20272;-76
2023/05/29 03:58:29;;;;;;;;;;;;;;;;;;5051415;28;19913;-75
2023/05/29 04:00:54;;;;;;;;;;;;;;;;;;5050915;28;19990;-76
2023/05/29 04:03:20;;;;;;;;;;;;;;;;;;5050789;28;19909;-74
2023/05/29 04:05:45;;;;;;;;;;;;;;;;;;5050642;28;20010;-74
2023/05/29 04:08:13;;;;;;;;;;;;;;;;;;5050361;28;21386;-74
2023/05/29 04:10:39;;;;;;;;;;;;;;;;;;5046464;28;20745;-75
2023/05/29 04:13:04;;;;;;;;;;;;;;;;;;5038600;28;20012;-74
2023/05/29 04:15:30;;;;;;;;;;;;;;;;;;5049802;28;19920;-75
2023/05/29 04:17:55;;;;;;;;;;;;;;;;;;5050977;28;20314;-75
2023/05/29 04:20:21;;;;;;;;;;;;;;;;;;5068938;28;19938;-75
2023/05/29 04:22:46;;;;;;;;;;;;;;;;;;5034252;28;19919;-74
2023/05/29 04:25:12;;;;;;;;;;;;;;;;;;5050325;28;20387;-76
2023/05/29 04:27:38;;;;;;;;;;;;;;;;;;5068295;28;19966;-74
2023/05/29 04:30:04;;;;;;;;;;;;;;;;;;5050651;28;19913;-76
2023/05/29 04:32:33;;;;;;;;;;;;;;;;;;5050664;28;20295;-75
2023/05/29 04:35:02;;;;;;;;;;;;;;;;;;5047308;28;19916;-75
2023/05/29 04:37:29;;;;;;;;;;;;;;;;;;5065027;28;19913;-76
2023/05/29 04:39:55;;;;;;;;;;;;;;;;;;5033605;28;19987;-75
2023/05/29 04:42:24;;;;;;;;;;;;;;;;;;5050389;28;19920;-76
2023/05/29 04:44:50;;;;;;;;;;;;;;;;;;5050664;28;19912;-74
2023/05/29 04:47:15;;;;;;;;;;;;;;;;;;5066036;28;19920;-75
2023/05/29 04:49:41;;;;;;;;;;;;;;;;;;5050643;28;19915;-75
2023/05/29 04:52:06;;;;;;;;;;;;;;;;;;5048707;28;19912;-76
2023/05/29 04:54:33;;;;;;;;;;;;;;;;;;5049402;28;19920;-75
2023/05/29 04:56:59;;;;;;;;;;;;;;;;;;5033009;28;20543;-76
2023/05/29 04:59:28;;;;;;;;;;;;;;;;;;5083662;28;19927;-74
2023/05/29 05:01:54;;;;;;;;;;;;;;;;;;5060975;28;19916;-74
2023/05/29 05:04:19;;;;;;;;;;;;;;;;;;5050410;28;19916;-75
2023/05/29 05:06:45;;;;;;;;;;;;;;;;;;5032334;28;19956;-74
2023/05/29 05:09:11;;;;;;;;;;;;;;;;;;5049348;28;20346;-74
2023/05/29 05:11:36;;;;;;;;;;;;;;;;;;5049644;28;19922;-74
2023/05/29 05:14:01;;;;;;;;;;;;;;;;;;5050394;28;20465;-73
2023/05/29 05:16:26;;;;;;;;;;;;;;;;;;5050478;28;19908;-74
2023/05/29 05:18:52;;;;;;;;;;;;;;;;;;5049628;28;19977;-74
2023/05/29 05:21:17;;;;;;;;;;;;;;;;;;5049726;28;20418;-75
2023/05/29 05:23:44;;;;;;;;;;;;;;;;;;5048963;28;19941;-75
2023/05/29 05:26:10;;;;;;;;;;;;;;;;;;5051748;28;20347;-75
2023/05/29 05:28:35;;;;;;;;;;;;;;;;;;5062611;28;19928;-73
2023/05/29 05:31:01;;;;;;;;;;;;;;;;;;5049646;28;20014;-74
2023/05/29 05:33:30;;;;;;;;;;;;;;;;;;5051361;28;20291;-74
2023/05/29 05:35:55;;;;;;;;;;;;;;;;;;5051900;28;19916;-73
2023/05/29 05:38:21;;;;;;;;;;;;;;;;;;5051014;28;20003;-73
2023/05/29 05:40:47;;;;;;;;;;;;;;;;;;5069587;28;20296;-73
2023/05/29 05:43:19;;;;;;;;;;;;;;;;;;5051385;28;20392;-73
2023/05/29 05:46:07;;;;;;;;;;;;;;;;;;5034098;28;19912;-74
2023/05/29 05:48:34;;;;;;;;;;;;;;;;;;5053189;28;19973;-75
2023/05/29 05:50:59;;;;;;;;;;;;;;;;;;5053368;28;20011;-73
2023/05/29 05:53:25;;;;;;;;;;;;;;;;;;5053321;28;19923;-73
2023/05/29 05:55:51;;;;;;;;;;;;;;;;;;5053023;28;19912;-73
2023/05/29 05:58:16;;;;;;;;;;;;;;;;;;5036200;28;20371;-74
2023/05/29 06:00:42;;;;;;;;;;;;;;;;;;5053060;28;20283;-76
2023/05/29 06:03:08;;;;;;;;;;;;;;;;;;5052906;28;20279;-73
2023/05/29 06:05:48;;;;;;;;;;;;;;;;;;5038681;28;19912;-74
2023/05/29 06:08:13;;;;;;;;;;;;;;;;;;5070877;28;20356;-73
2023/05/29 06:10:39;;;;;;;;;;;;;;;;;;5053438;28;19916;-74
2023/05/29 06:13:04;;;;;;;;;;;;;;;;;;5053294;28;19951;-74
2023/05/29 06:15:40;;;;;;;;;;;;;;;;;;5053082;28;19923;-73
2023/05/29 06:18:05;;;;;;;;;;;;;;;;;;5053300;28;20363;-76
2023/05/29 06:20:30;;;;;;;;;;;;;;;;;;5052595;28;19920;-75
2023/05/29 06:22:56;;;;;;;;;;;;;;;;;;5053094;28;19913;-75
2023/05/29 06:25:29;;;;;;;;;;;;;;;;;;5052900;28;19908;-75
2023/05/29 06:27:55;;;;;;;;;;;;;;;;;;5052612;28;19912;-74
2023/05/29 06:30:20;;;;;;;;;;;;;;;;;;5070202;28;19957;-77
2023/05/29 06:32:45;;;;;;;;;;;;;;;;;;5036448;28;20304;-75
2023/05/29 06:35:11;;;;;;;;;;;;;;;;;;5052525;28;19912;-74
2023/05/29 06:37:36;;;;;;;;;;;;;;;;;;5050902;28;19912;-76
2023/05/29 06:40:01;;;;;;;;;;;;;;;;;;5052187;28;19923;-76
2023/05/29 06:42:26;;;;;;;;;;;;;;;;;;5052286;28;20061;-74
2023/05/29 06:44:57;;;;;;;;;;;;;;;;;;5051703;28;20038;-76
2023/05/29 06:47:22;;;;;;;;;;;;;;;;;;5052268;28;20379;-75
2023/05/29 06:49:48;;;;;;;;;;;;;;;;;;5052498;28;19908;-75
2023/05/29 06:52:14;;;;;;;;;;;;;;;;;;5035579;28;20395;-76
2023/05/29 06:54:57;;;;;;;;;;;;;;;;;;5070714;28;19920;-76
2023/05/29 06:57:23;;;;;;;;;;;;;;;;;;5052277;28;19912;-75
2023/05/29 06:59:48;;;;;;;;;;;;;;;;;;5062508;28;19940;-76
2023/05/29 07:02:14;;;;;;;;;;;;;;;;;;5074287;28;19913;-72
2023/05/29 07:04:39;;;;;;;;;;;;;;;;;;5053188;28;20346;-72
2023/05/29 07:07:04;;;;;;;;;;;;;;;;;;5052215;28;19915;-72
2023/05/29 07:09:30;;;;;;;;;;;;;;;;;;5049345;28;19920;-73
2023/05/29 07:11:55;;;;;;;;;;;;;;;;;;5071318;28;19916;-72
2023/05/29 07:14:22;;;;;;;;;;;;;;;;;;5039164;28;20303;-72
2023/05/29 07:16:47;;;;;;;;;;;;;;;;;;5058991;28;19912;-72
2023/05/29 07:19:13;;;;;;;;;;;;;;;;;;5033666;28;19972;-72
2023/05/29 07:21:39;;;;;;;;;;;;;;;;;;5043161;28;19913;-72
2023/05/29 07:24:05;;;;;;;;;;;;;;;;;;5067658;28;20514;-73
2023/05/29 07:26:31;;;;;;;;;;;;;;;;;;5051938;28;19912;-72
2023/05/29 07:28:56;;;;;;;;;;;;;;;;;;5071369;28;20340;-72
2023/05/29 07:31:21;;;;;;;;;;;;;;;;;;5069811;28;20007;-73
2023/05/29 07:33:49;;;;;;;;;;;;;;;;;;5032374;28;19946;-71
2023/05/29 07:36:14;;;;;;;;;;;;;;;;;;5047433;28;19916;-72
2023/05/29 07:38:40;;;;;;;;;;;;;;;;;;5066045;28;19913;-72
2023/05/29 07:41:05;;;;;;;;;;;;;;;;;;5065568;28;19920;-72
2023/05/29 07:43:32;;;;;;;;;;;;;;;;;;5047920;28;19960;-72
2023/05/29 07:46:01;;;;;;;;;;;;;;;;;;5049128;28;19909;-72
2023/05/29 07:48:27;;;;;;;;;;;;;;;;;;5048649;28;19919;-72
2023/05/29 07:50:54;;;;;;;;;;;;;;;;;;5048653;28;20022;-72
2023/05/29 07:53:19;;;;;;;;;;;;;;;;;;5049484;28;20383;-72
2023/05/29 07:55:46;;;;;;;;;;;;;;;;;;5049068;28;19995;-72
2023/05/29 07:58:11;;;;;;;;;;;;;;;;;;5067628;28;19924;-72
2023/05/29 08:00:38;;;;;;;;;;;;;;;;;;5049633;28;19965;-72
2023/05/29 08:03:03;;;;;;;;;;;;;;;;;;5050666;28;20008;-72
2023/05/29 08:05:29;;;;;;;;;;;;;;;;;;5069161;28;19998;-72
2023/05/29 08:07:54;;;;;;;;;;;;;;;;;;5051278;28;19915;-72
2023/05/29 08:10:19;;;;;;;;;;;;;;;;;;5051252;28;19912;-72
2023/05/29 08:12:45;;;;;;;;;;;;;;;;;;5050787;28;20445;-73
2023/05/29 08:15:12;;;;;;;;;;;;;;;;;;5051072;28;19944;-72
2023/05/29 08:17:37;;;;;;;;;;;;;;;;;;5051073;28;19916;-72
2023/05/29 08:20:05;;;;;;;;;;;;;;;;;;5068978;28;20375;-71
2023/05/29 08:22:31;;;;;;;;;;;;;;;;;;5067674;28;19912;-72
2023/05/29 08:24:56;;;;;;;;;;;;;;;;;;5050525;28;19958;-72
2023/05/29 08:27:22;;;;;;;;;;;;;;;;;;5068618;28;19974;-72
2023/05/29 08:29:47;;;;;;;;;;;;;;;;;;5068763;28;19919;-72
2023/05/29 08:32:12;;;;;;;;;;;;;;;;;;5070079;28;20027;-73
2023/05/29 08:34:38;;;;;;;;;;;;;;;;;;5074242;28;19913;-73
2023/05/29 08:37:05;;;;;;;;;;;;;;;;;;5069379;28;19912;-72
2023/05/29 08:39:30;;;;;;;;;;;;;;;;;;5068531;28;20470;-72
2023/05/29 08:41:55;;;;;;;;;;;;;;;;;;5068248;28;19999;-72
2023/05/29 08:44:20;;;;;;;;;;;;;;;;;;5068492;28;19912;-72
2023/05/29 08:46:46;;;;;;;;;;;;;;;;;;5068944;28;20321;-72
2023/05/29 08:49:11;;;;;;;;;;;;;;;;;;5068619;28;19934;-73
2023/05/29 08:51:36;;;;;;;;;;;;;;;;;;5068566;28;19909;-72
2023/05/29 08:54:02;;;;;;;;;;;;;;;;;;5068744;28;19923;-72
2023/05/29 08:56:27;;;;;;;;;;;;;;;;;;5068801;28;20428;-73
2023/05/29 08:58:52;;;;;;;;;;;;;;;;;;5068504;28;20276;-72
2023/05/29 09:01:20;;;;;;;;;;;;;;;;;;5070574;28;19955;-72
2023/05/29 09:03:45;;;;;;;;;;;;;;;;;;5072060;28;20134;-72
2023/05/29 09:06:11;;;;;;;;;;;;;;;;;;5053674;28;19912;-72
2023/05/29 09:08:36;;;;;;;;;;;;;;;;;;5072165;28;19915;-72
2023/05/29 09:11:02;;;;;;;;;;;;;;;;;;5054076;28;19916;-72
2023/05/29 09:13:28;;;;;;;;;;;;;;;;;;5071464;28;20026;-72
2023/05/29 09:15:54;;;;;;;;;;;;;;;;;;5071021;28;19916;-72
2023/05/29 09:18:19;;;;;;;;;;;;;;;;;;5071063;28;20123;-73
2023/05/29 09:20:44;;;;;;;;;;;;;;;;;;5071386;28;19943;-73
2023/05/29 09:23:09;;;;;;;;;;;;;;;;;;5070347;28;19909;-72
2023/05/29 09:25:35;;;;;;;;;;;;;;;;;;5069826;28;19916;-73
2023/05/29 09:28:00;;;;;;;;;;;;;;;;;;5069931;28;20390;-73
2023/05/29 09:30:26;;;;;;;;;;;;;;;;;;5071497;28;19912;-72
2023/05/29 09:32:51;;;;;;;;;;;;;;;;;;5070244;28;19912;-71
2023/05/29 09:35:16;;;;;;;;;;;;;;;;;;5068145;28;19915;-72
2023/05/29 09:37:42;;;;;;;;;;;;;;;;;;5071561;28;19913;-71
2023/05/29 09:40:07;;;;;;;;;;;;;;;;;;5069583;28;20390;-71
2023/05/29 09:42:32;;;;;;;;;;;;;;;;;;5069457;28;19916;-71
2023/05/29 09:44:58;;;;;;;;;;;;;;;;;;5070697;28;19913;-71
2023/05/29 09:47:23;;;;;;;;;;;;;;;;;;5071412;28;19912;-70
2023/05/29 09:49:51;;;;;;;;;;;;;;;;;;5071105;28;19915;-70
2023/05/29 09:52:16;;;;;;;;;;;;;;;;;;5069552;28;20300;-70
2023/05/29 09:54:45;;;;;;;;;;;;;;;;;;5071265;28;19912;-72
2023/05/29 09:57:10;;;;;;;;;;;;;;;;;;5069836;28;19916;-70
2023/05/29 09:59:38;;;;;;;;;;;;;;;;;;5051993;28;19923;-70
2023/05/29 10:02:04;;;;;;;;;;;;;;;;;;5070133;28;19966;-69
2023/05/29 10:04:29;;;;;;;;;;;;;;;;;;5064588;28;19916;-70
2023/05/29 10:06:55;;;;;;;;;;;;;;;;;;5069421;28;19964;-69
2023/05/29 10:09:25;;;;;;;;;;;;;;;;;;5070363;28;19916;-70
2023/05/29 10:11:50;;;;;;;;;;;;;;;;;;5069352;28;19908;-69
2023/05/29 10:14:16;;;;;;;;;;;;;;;;;;5052681;28;20264;-70
2023/05/29 10:16:44;;;;;;;;;;;;;;;;;;5070865;28;19913;-70
2023/05/29 10:19:09;;;;;;;;;;;;;;;;;;5052936;28;19912;-69
2023/05/29 10:21:35;;;;;;;;;;;;;;;;;;5071085;28;19916;-70
2023/05/29 10:24:12;;;;;;;;;;;;;;;;;;5070312;28;19919;-69
2023/05/29 10:26:37;;;;;;;;;;;;;;;;;;5052821;28;19916;-72
2023/05/29 10:29:03;;;;;;;;;;;;;;;;;;5070883;28;20387;-71
2023/05/29 10:31:31;;;;;;;;;;;;;;;;;;5070732;28;19913;-70
2023/05/29 10:34:04;;;;;;;;;;;;;;;;;;5070300;28;20011;-70
2023/05/29 10:36:30;;;;;;;;;;;;;;;;;;5070406;28;20323;-68
2023/05/29 10:39:04;;;;;;;;;;;;;;;;;;5070127;28;19923;-71
2023/05/29 10:41:33;;;;;;;;;;;;;;;;;;5070496;28;19920;-69
2023/05/29 10:44:00;;;;;;;;;;;;;;;;;;5070379;28;19984;-71
2023/05/29 10:46:26;;;;;;;;;;;;;;;;;;5070284;28;19916;-71
2023/05/29 10:48:54;;;;;;;;;;;;;;;;;;5070465;28;19912;-69
2023/05/29 10:51:20;;;;;;;;;;;;;;;;;;5052254;28;19916;-71
2023/05/29 10:53:45;;;;;;;;;;;;;;;;;;5070152;28;20356;-70
2023/05/29 10:56:12;;;;;;;;;;;;;;;;;;5070164;28;19947;-71
2023/05/29 10:58:37;;;;;;;;;;;;;;;;;;5070116;28;20451;-71
2023/05/29 11:01:03;;;;;;;;;;;;;;;;;;5070324;28;20011;-72
2023/05/29 11:03:28;;;;;;;;;;;;;;;;;;5070209;28;19920;-71
2023/05/29 11:05:57;;;;;;;;;;;;;;;;;;5070222;28;20013;-71
2023/05/29 11:08:22;;;;;;;;;;;;;;;;;;5052116;28;19913;-70
2023/05/29 11:10:47;;;;;;;;;;;;;;;;;;5069923;28;19912;-70
2023/05/29 11:13:13;;;;;;;;;;;;;;;;;;5070407;28;19973;-71
2023/05/29 11:15:44;;;;;;;;;;;;;;;;;;5052761;28;19917;-72
2023/05/29 11:18:10;;;;;;;;;;;;;;;;;;5069393;28;19955;-71
2023/05/29 11:20:38;;;;;;;;;;;;;;;;;;5070098;28;20019;-72
2023/05/29 11:23:06;;;;;;;;;;;;;;;;;;5069818;28;19919;-72
2023/05/29 11:25:32;;;;;;;;;;;;;;;;;;5069854;28;19908;-72
2023/05/29 11:27:58;;;;;;;;;;;;;;;;;;5069933;28;19923;-71
2023/05/29 11:30:23;;;;;;;;;;;;;;;;;;5069412;28;19913;-69
2023/05/29 11:32:55;;;;;;;;;;;;;;;;;;5069880;28;19916;-73
2023/05/29 11:35:22;;;;;;;;;;;;;;;;;;5069595;28;19919;-69
2023/05/29 11:37:57;;;;;;;;;;;;;;;;;;5069444;28;19928;-69
2023/05/29 11:40:25;;;;;;;;;;;;;;;;;;5069643;28;19923;-70
2023/05/29 11:42:53;;;;;;;;;;;;;;;;;;5051848;28;19912;-72
2023/05/29 11:45:19;;;;;;;;;;;;;;;;;;5069819;28;19924;-69
2023/05/29 11:47:47;;;;;;;;;;;;;;;;;;5069658;28;19920;-71
2023/05/29 11:50:12;;;;;;;;;;;;;;;;;;5069105;28;19912;-70
2023/05/29 11:52:40;;;;;;;;;;;;;;;;;;5069749;28;19908;-70
2023/05/29 11:55:05;;;;;;;;;;;;;;;;;;5069428;28;19927;-71
2023/05/29 11:57:30;;;;;;;;;;;;;;;;;;5051715;28;19908;-70
2023/05/29 11:59:58;;;;;;;;;;;;;;;;;;5069326;28;19946;-72
2023/05/29 12:02:25;;;;;;;;;;;;;;;;;;5068920;28;20413;-70
2023/05/29 12:04:50;;;;;;;;;;;;;;;;;;5069035;28;19912;-71
2023/05/29 12:07:16;;;;;;;;;;;;;;;;;;5069360;28;20386;-71
2023/05/29 12:09:41;;;;;;;;;;;;;;;;;;5069149;28;19912;-71
2023/05/29 12:12:06;;;;;;;;;;;;;;;;;;5068818;28;19913;-71
2023/05/29 12:14:31;;;;;;;;;;;;;;;;;;5069124;28;20336;-72
2023/05/29 12:16:57;;;;;;;;;;;;;;;;;;5069148;28;19916;-69
2023/05/29 12:19:22;;;;;;;;;;;;;;;;;;5050888;28;19916;-70
2023/05/29 12:21:47;;;;;;;;;;;;;;;;;;5067036;28;19908;-69
2023/05/29 12:24:13;;;;;;;;;;;;;;;;;;5068658;28;19999;-69
2023/05/29 12:26:38;;;;;;;;;;;;;;;;;;5061830;28;19917;-69
2023/05/29 12:29:05;;;;;;;;;;;;;;;;;;5068710;28;19912;-71
2023/05/29 12:31:31;;;;;;;;;;;;;;;;;;5069971;28;19919;-71
2023/05/29 12:33:56;;;;;;;;;;;;;;;;;;5063202;28;19916;-71
2023/05/29 12:36:21;;;;;;;;;;;;;;;;;;5069124;28;20382;-70
2023/05/29 12:38:46;;;;;;;;;;;;;;;;;;5067469;28;19912;-70
2023/05/29 12:41:12;;;;;;;;;;;;;;;;;;5068596;28;20043;-71
2023/05/29 12:43:37;;;;;;;;;;;;;;;;;;5068623;28;20355;-71
2023/05/29 12:46:02;;;;;;;;;;;;;;;;;;5067929;28;19919;-71
2023/05/29 12:48:27;;;;;;;;;;;;;;;;;;5068307;28;19916;-71
2023/05/29 12:50:53;;;;;;;;;;;;;;;;;;5067433;28;21109;-70
2023/05/29 12:53:18;;;;;;;;;;;;;;;;;;5066824;28;20359;-70
2023/05/29 12:55:43;;;;;;;;;;;;;;;;;;5067001;28;20383;-70
2023/05/29 12:58:08;;;;;;;;;;;;;;;;;;5066496;28;19983;-70
2023/05/29 13:00:34;;;;;;;;;;;;;;;;;;5066520;28;19926;-71
2023/05/29 13:02:59;;;;;;;;;;;;;;;;;;5066699;28;20018;-70
2023/05/29 13:05:24;;;;;;;;;;;;;;;;;;5048760;28;20007;-72
2023/05/29 13:07:50;;;;;;;;;;;;;;;;;;5068125;28;20327;-71
2023/05/29 13:10:15;;;;;;;;;;;;;;;;;;5068088;28;19928;-70
2023/05/29 13:12:40;;;;;;;;;;;;;;;;;;5068420;28;19919;-71
2023/05/29 13:15:06;;;;;;;;;;;;;;;;;;5068288;28;20452;-70
2023/05/29 13:17:31;;;;;;;;;;;;;;;;;;5068102;28;19995;-71
2023/05/29 13:19:56;;;;;;;;;;;;;;;;;;5068125;28;19920;-71
2023/05/29 13:22:22;;;;;;;;;;;;;;;;;;5067969;28;20356;-71
2023/05/29 13:24:47;;;;;;;;;;;;;;;;;;5068200;28;19934;-71
2023/05/29 13:27:16;;;;;;;;;;;;;;;;;;5068509;28;19938;-71
2023/05/29 13:29:41;;;;;;;;;;;;;;;;;;5068515;28;19916;-71
2023/05/29 13:32:06;;;;;;;;;;;;;;;;;;5068395;28;19912;-72
2023/05/29 13:34:31;;;;;;;;;;;;;;;;;;5068033;28;19908;-71
2023/05/29 13:36:57;;;;;;;;;;;;;;;;;;5067979;28;19916;-71
2023/05/29 13:39:22;;;;;;;;;;;;;;;;;;5067793;28;19938;-71
2023/05/29 13:41:47;;;;;;;;;;;;;;;;;;5068141;28;20015;-71
2023/05/29 13:44:13;;;;;;;;;;;;;;;;;;5067972;28;20019;-72
2023/05/29 13:46:38;;;;;;;;;;;;;;;;;;5067890;28;19948;-72
2023/05/29 13:49:03;;;;;;;;;;;;;;;;;;5072214;28;19912;-71
2023/05/29 13:51:28;;;;;;;;;;;;;;;;;;5069038;28;19917;-72
2023/05/29 13:53:54;;;;;;;;;;;;;;;;;;5070955;28;19912;-72
2023/05/29 13:56:19;;;;;;;;;;;;;;;;;;5074298;28;19944;-72
2023/05/29 13:58:44;;;;;;;;;;;;;;;;;;5090608;28;19916;-73
2023/05/29 14:01:09;;;;;;;;;;;;;;;;;;5085154;28;20003;-71
2023/05/29 14:03:35;;;;;;;;;;;;;;;;;;5071811;28;19916;-71
2023/05/29 14:06:02;;;;;;;;;;;;;;;;;;5078150;28;19916;-70
2023/05/29 14:08:27;;;;;;;;;;;;;;;;;;5070260;28;20049;-71
2023/05/29 14:10:53;;;;;;;;;;;;;;;;;;5071177;28;20002;-73
2023/05/29 14:13:18;;;;;;;;;;;;;;;;;;5077567;28;19912;-73
2023/05/29 14:15:43;;;;;;;;;;;;;;;;;;5073455;28;20019;-73
2023/05/29 14:18:09;;;;;;;;;;;;;;;;;;5070884;28;19996;-72
2023/05/29 14:20:34;;;;;;;;;;;;;;;;;;5070464;28;19916;-72
2023/05/29 14:22:59;;;;;;;;;;;;;;;;;;5047649;28;20331;-73
2023/05/29 14:25:25;;;;;;;;;;;;;;;;;;5055342;28;19920;-72
2023/05/29 14:27:50;;;;;;;;;;;;;;;;;;5051518;28;19908;-74
2023/05/29 14:30:15;;;;;;;;;;;;;;;;;;5033340;28;19939;-73
2023/05/29 14:32:41;;;;;;;;;;;;;;;;;;5064405;28;19944;-73
2023/05/29 14:35:07;;;;;;;;;;;;;;;;;;5070883;28;20382;-73
2023/05/29 14:37:32;;;;;;;;;;;;;;;;;;5072869;28;20007;-73
2023/05/29 14:39:57;;;;;;;;;;;;;;;;;;5069212;28;20386;-73
2023/05/29 14:42:22;;;;;;;;;;;;;;;;;;5069674;28;19957;-72
2023/05/29 14:44:48;;;;;;;;;;;;;;;;;;5070826;28;19952;-72
2023/05/29 14:47:13;;;;;;;;;;;;;;;;;;5070384;28;19909;-73
2023/05/29 14:49:38;;;;;;;;;;;;;;;;;;5069183;28;19919;-72
2023/05/29 14:52:04;;;;;;;;;;;;;;;;;;5068505;28;19924;-73
2023/05/29 14:54:29;;;;;;;;;;;;;;;;;;5069452;28;20405;-74
2023/05/29 14:56:54;;;;;;;;;;;;;;;;;;5070622;28;19908;-72
2023/05/29 14:59:19;;;;;;;;;;;;;;;;;;5068258;28;20257;-72
2023/05/29 15:01:45;;;;;;;;;;;;;;;;;;5071915;28;19997;-73
2023/05/29 15:04:10;;;;;;;;;;;;;;;;;;5067358;28;19922;-73
2023/05/29 15:06:36;;;;;;;;;;;;;;;;;;5067934;28;19913;-73
2023/05/29 15:09:01;;;;;;;;;;;;;;;;;;5068177;28;19912;-74
2023/05/29 15:11:26;;;;;;;;;;;;;;;;;;5070048;28;19916;-73
2023/05/29 15:13:51;;;;;;;;;;;;;;;;;;5052099;28;20327;-73
2023/05/29 15:16:17;;;;;;;;;;;;;;;;;;5069633;28;19914;-73
2023/05/29 15:18:42;;;;;;;;;;;;;;;;;;5070913;28;19928;-73
2023/05/29 15:21:07;;;;;;;;;;;;;;;;;;5077482;28;19920;-73
2023/05/29 15:23:34;;;;;;;;;;;;;;;;;;5074363;28;19916;-73
2023/05/29 15:25:59;;;;;;;;;;;;;;;;;;5076833;28;20356;-73
2023/05/29 15:28:24;;;;;;;;;;;;;;;;;;5088196;28;19918;-73
2023/05/29 15:30:50;;;;;;;;;;;;;;;;;;5088362;28;19918;-72
2023/05/29 15:33:15;;;;;;;;;;;;;;;;;;5072046;28;20301;-73
2023/05/29 15:35:42;;;;;;;;;;;;;;;;;;5067792;28;19916;-72
2023/05/29 15:38:07;;;;;;;;;;;;;;;;;;5069132;28;19923;-73
2023/05/29 15:40:32;;;;;;;;;;;;;;;;;;5055563;28;19916;-73
2023/05/29 15:42:58;;;;;;;;;;;;;;;;;;5069499;28;19913;-73
2023/05/29 15:45:23;;;;;;;;;;;;;;;;;;5071642;28;20371;-73
2023/05/29 15:47:48;;;;;;;;;;;;;;;;;;5069626;28;19915;-74
2023/05/29 15:50:13;;;;;;;;;;;;;;;;;;5066985;28;19912;-73
2023/05/29 15:52:39;;;;;;;;;;;;;;;;;;5059072;28;20390;-73
2023/05/29 15:55:04;;;;;;;;;;;;;;;;;;5069056;28;19917;-73
2023/05/29 15:57:29;;;;;;;;;;;;;;;;;;5068861;28;19923;-73
2023/05/29 15:59:55;;;;;;;;;;;;;;;;;;5067900;28;19920;-72
2023/05/29 16:02:20;;;;;;;;;;;;;;;;;;5067208;28;19916;-72
2023/05/29 16:04:45;;;;;;;;;;;;;;;;;;5067652;28;20007;-73
2023/05/29 16:07:10;;;;;;;;;;;;;;;;;;5067809;28;19999;-73
2023/05/29 16:09:37;;;;;;;;;;;;;;;;;;5067055;28;19970;-73
2023/05/29 16:12:03;;;;;;;;;;;;;;;;;;5067189;28;20031;-72
2023/05/29 16:14:29;;;;;;;;;;;;;;;;;;5068400;28;19935;-72
2023/05/29 16:16:54;;;;;;;;;;;;;;;;;;5067768;28;19908;-72
2023/05/29 16:19:19;;;;;;;;;;;;;;;;;;5068322;28;19939;-73
2023/05/29 16:21:45;;;;;;;;;;;;;;;;;;5068732;28;20278;-72
2023/05/29 16:24:10;;;;;;;;;;;;;;;;;;5068207;28;19918;-73
2023/05/29 16:26:35;;;;;;;;;;;;;;;;;;5068119;28;20343;-74
2023/05/29 16:29:00;;;;;;;;;;;;;;;;;;5068602;28;19934;-72
2023/05/29 16:31:26;;;;;;;;;;;;;;;;;;5069305;28;19927;-74
2023/05/29 16:33:51;;;;;;;;;;;;;;;;;;5068129;28;19962;-73
2023/05/29 16:36:17;;;;;;;;;;;;;;;;;;5068656;28;19999;-73